Mc Donald, New Mexico
Current Conditions -  °F | °C
As of 1:50 PM on Saturday 20 Dec 2014 (Local Time) from KHOB Reporting Station
Clear Clear  
Wind Chill: 54°   Ceiling: Unl
Heat Index: 54°   Visibility: 10mi
Dew Point: 32°   Wind: 6mph
Humidity: 44%   Direction: 190°S
Pressure: 30.03"   Gusts: NA
Location:  33.1415°N, 103.313°W
Report Text: KHOB 202050Z 19005KT 10SM SKC 12/00 A3003
Loading
Personal Weather Stations






























Interactive Weather Map New forecast layout! Learn more

10-Day Weather Forecast

Advertisements
Track Severe Weather on mobile